Time;durP1;ratioP1;P1;durP2;ratioP2;P2;SDS_P1;SDS_P2;PMS_P1;PMS_P2;Temp;Humidity;BMP_temperature;BMP_pressure;BME280_temperature;BME280_humidity;BME280_pressure;Samples;Min_cycle;Max_cycle;Signal;HPM_P1;HPM_P2
2022/01/17 00:00:30;;;;;;;30.65;14.70;;;;;;;;;;5082044;28;20027;-84
2022/01/17 00:02:55;;;;;;;25.05;13.82;;;;;;;;;;5099778;28;20019;-83
2022/01/17 00:05:21;;;;;;;25.10;12.63;;;;;;;;;;5091886;28;20046;-84
2022/01/17 00:07:46;;;;;;;21.60;12.95;;;;;;;;;;5079747;28;20033;-84
2022/01/17 00:10:12;;;;;;;21.85;12.32;;;;;;;;;;5099205;28;20055;-84
2022/01/17 00:12:44;;;;;;;23.55;11.82;;;;;;;;;;5104656;28;20035;-83
2022/01/17 00:15:19;;;;;;;22.48;12.07;;;;;;;;;;5084476;28;20066;-84
2022/01/17 00:17:49;;;;;;;25.65;12.10;;;;;;;;;;5083900;28;20058;-84
2022/01/17 00:20:18;;;;;;;27.00;11.95;;;;;;;;;;5080937;28;20103;-84
2022/01/17 00:22:45;;;;;;;24.67;12.18;;;;;;;;;;5079104;28;20056;-84
2022/01/17 00:25:10;;;;;;;29.23;12.63;;;;;;;;;;5084960;28;20047;-84
2022/01/17 00:27:36;;;;;;;25.45;11.40;;;;;;;;;;5085938;28;20089;-84
2022/01/17 00:30:03;;;;;;;21.75;10.82;;;;;;;;;;5090456;28;20048;-84
2022/01/17 00:32:28;;;;;;;23.60;10.98;;;;;;;;;;5087361;28;20448;-84
2022/01/17 00:34:53;;;;;;;23.05;12.10;;;;;;;;;;5088156;28;20039;-84
2022/01/17 00:37:19;;;;;;;22.90;11.48;;;;;;;;;;5080671;28;20387;-84
2022/01/17 00:39:44;;;;;;;24.38;11.95;;;;;;;;;;5086212;28;20427;-84
2022/01/17 00:42:09;;;;;;;19.38;10.40;;;;;;;;;;5083629;28;20051;-84
2022/01/17 00:44:35;;;;;;;20.98;10.52;;;;;;;;;;5086698;28;20106;-83
2022/01/17 00:47:00;;;;;;;19.30;10.38;;;;;;;;;;5084726;28;20127;-84
2022/01/17 00:49:26;;;;;;;20.00;9.95;;;;;;;;;;5086490;28;20110;-84
2022/01/17 00:51:52;;;;;;;19.25;9.52;;;;;;;;;;5100382;28;20036;-84
2022/01/17 00:54:17;;;;;;;20.88;9.95;;;;;;;;;;5089717;28;20034;-84
2022/01/17 00:56:43;;;;;;;29.42;8.75;;;;;;;;;;5106830;28;20358;-84
2022/01/17 00:59:08;;;;;;;22.45;8.75;;;;;;;;;;5105149;28;20043;-84
2022/01/17 01:01:33;;;;;;;20.25;8.50;;;;;;;;;;5091907;28;20024;-84
2022/01/17 01:03:58;;;;;;;22.50;9.38;;;;;;;;;;5089331;28;20031;-84
2022/01/17 01:06:24;;;;;;;21.45;9.65;;;;;;;;;;5089055;28;20342;-84
2022/01/17 01:08:49;;;;;;;21.05;8.55;;;;;;;;;;5087649;28;20047;-83
2022/01/17 01:11:14;;;;;;;25.45;9.23;;;;;;;;;;5086838;28;20035;-84
2022/01/17 01:13:40;;;;;;;19.67;8.95;;;;;;;;;;5100361;28;20024;-84
2022/01/17 01:29:13;;;;;;;14.18;4.78;;;;;;;;;;5100014;28;20112;-84
2022/01/17 01:32:02;;;;;;;12.15;3.65;;;;;;;;;;5089950;28;20032;-84
2022/01/17 01:34:36;;;;;;;13.00;2.80;;;;;;;;;;5105369;28;20020;-84
2022/01/17 01:37:03;;;;;;;11.75;2.67;;;;;;;;;;5088897;28;20036;-83
2022/01/17 01:39:29;;;;;;;11.40;2.55;;;;;;;;;;5086689;28;20031;-84
2022/01/17 01:41:54;;;;;;;11.00;2.60;;;;;;;;;;5088735;28;20053;-84
2022/01/17 01:44:22;;;;;;;10.45;2.45;;;;;;;;;;5086899;28;20076;-84
2022/01/17 01:46:49;;;;;;;14.77;3.08;;;;;;;;;;5083957;28;20046;-84
2022/01/17 01:49:16;;;;;;;10.10;2.38;;;;;;;;;;5081200;28;20081;-84
2022/01/17 01:51:42;;;;;;;7.93;1.77;;;;;;;;;;5088207;28;20470;-84
2022/01/17 01:54:08;;;;;;;7.55;1.50;;;;;;;;;;5083364;28;20038;-84
2022/01/17 01:56:38;;;;;;;7.80;1.90;;;;;;;;;;5106102;28;20027;-83
2022/01/17 01:59:04;;;;;;;7.82;1.50;;;;;;;;;;5082282;28;20031;-84
2022/01/17 02:01:30;;;;;;;6.80;1.65;;;;;;;;;;5089120;28;20066;-84
2022/01/17 02:03:55;;;;;;;11.40;2.00;;;;;;;;;;5081143;28;20035;-84
2022/01/17 02:06:20;;;;;;;8.27;1.50;;;;;;;;;;5087448;28;20515;-84
2022/01/17 02:08:46;;;;;;;12.30;1.77;;;;;;;;;;5091342;28;20096;-84
2022/01/17 02:11:11;;;;;;;7.72;1.13;;;;;;;;;;5106376;28;20028;-84
2022/01/17 02:13:40;;;;;;;6.95;1.33;;;;;;;;;;5084217;28;20027;-84
2022/01/17 02:16:16;;;;;;;8.27;1.20;;;;;;;;;;5084947;28;20031;-83
2022/01/17 02:18:43;;;;;;;7.50;1.65;;;;;;;;;;5084324;28;20023;-84
2022/01/17 02:21:20;;;;;;;7.78;1.40;;;;;;;;;;5087882;28;20054;-84
2022/01/17 02:23:52;;;;;;;13.07;1.50;;;;;;;;;;5099472;28;20058;-83
2022/01/17 02:26:19;;;;;;;7.75;1.85;;;;;;;;;;5108365;28;20393;-83
2022/01/17 02:28:49;;;;;;;10.50;1.60;;;;;;;;;;5080636;28;20104;-85
2022/01/17 02:31:16;;;;;;;10.15;1.75;;;;;;;;;;5081848;28;20054;-84
2022/01/17 02:33:42;;;;;;;9.52;1.80;;;;;;;;;;5082151;28;20080;-84
2022/01/17 02:36:07;;;;;;;7.13;1.58;;;;;;;;;;5104117;28;20015;-84
2022/01/17 02:38:33;;;;;;;11.38;1.60;;;;;;;;;;5100055;28;20509;-84
2022/01/17 02:40:58;;;;;;;10.13;1.60;;;;;;;;;;5101482;28;20016;-84
2022/01/17 02:43:26;;;;;;;8.38;1.48;;;;;;;;;;5080747;28;20027;-84
2022/01/17 02:48:18;;;;;;;8.63;1.50;;;;;;;;;;5100135;28;20035;-84
2022/01/17 02:50:43;;;;;;;10.10;2.10;;;;;;;;;;5081626;28;20111;-84
2022/01/17 02:53:09;;;;;;;9.93;1.67;;;;;;;;;;5101131;28;20110;-84
2022/01/17 02:55:36;;;;;;;8.82;1.50;;;;;;;;;;5109088;28;20020;-84
2022/01/17 02:58:02;;;;;;;9.70;1.27;;;;;;;;;;5082042;28;20019;-84
2022/01/17 03:00:27;;;;;;;9.23;1.52;;;;;;;;;;5091239;28;20201;-84
2022/01/17 03:02:53;;;;;;;9.10;1.45;;;;;;;;;;5101321;28;20031;-84
2022/01/17 03:05:20;;;;;;;7.28;1.40;;;;;;;;;;5087499;28;20047;-84
2022/01/17 03:07:47;;;;;;;6.25;1.27;;;;;;;;;;5081429;28;20028;-84
2022/01/17 03:12:51;;;;;;;11.82;1.30;;;;;;;;;;5104505;28;20043;-83
2022/01/17 03:15:16;;;;;;;6.35;1.08;;;;;;;;;;5080557;28;20015;-84
2022/01/17 03:17:42;;;;;;;6.00;1.13;;;;;;;;;;5085054;28;20051;-84
2022/01/17 03:20:07;;;;;;;4.93;0.90;;;;;;;;;;5081308;28;20114;-84
2022/01/17 03:22:33;;;;;;;8.07;1.30;;;;;;;;;;5085095;28;20023;-84
2022/01/17 03:24:59;;;;;;;6.15;1.55;;;;;;;;;;5084512;28;20027;-84
2022/01/17 03:27:24;;;;;;;8.02;1.48;;;;;;;;;;5080851;28;20036;-84
2022/01/17 03:29:50;;;;;;;6.45;1.30;;;;;;;;;;5085104;28;20517;-83
2022/01/17 03:32:15;;;;;;;6.45;1.30;;;;;;;;;;5081473;28;20028;-84
2022/01/17 03:34:40;;;;;;;6.63;1.33;;;;;;;;;;5086672;28;20072;-84
2022/01/17 03:37:06;;;;;;;9.75;1.38;;;;;;;;;;5084600;27;20027;-84
2022/01/17 03:39:31;;;;;;;8.68;1.73;;;;;;;;;;5086116;28;20159;-84
2022/01/17 03:41:56;;;;;;;3.70;0.90;;;;;;;;;;5082663;28;20019;-84
2022/01/17 03:44:22;;;;;;;5.00;0.88;;;;;;;;;;5081662;28;20047;-84
2022/01/17 03:46:47;;;;;;;5.82;1.10;;;;;;;;;;5101657;27;20035;-84
2022/01/17 03:49:12;;;;;;;8.55;1.13;;;;;;;;;;5098309;28;20034;-84
2022/01/17 03:51:38;;;;;;;8.98;1.10;;;;;;;;;;5082528;28;20114;-84
2022/01/17 03:54:03;;;;;;;7.97;1.10;;;;;;;;;;5085431;28;21444;-83
2022/01/17 03:56:28;;;;;;;9.25;1.65;;;;;;;;;;5084483;28;20016;-84
2022/01/17 03:58:53;;;;;;;5.68;1.40;;;;;;;;;;5083951;28;20035;-84
2022/01/17 04:01:19;;;;;;;11.15;2.40;;;;;;;;;;5098211;28;20036;-84
2022/01/17 04:03:46;;;;;;;6.57;2.90;;;;;;;;;;5085141;28;20030;-84
2022/01/17 04:06:14;;;;;;;10.00;3.50;;;;;;;;;;5085159;28;20032;-84
2022/01/17 04:08:41;;;;;;;13.38;4.18;;;;;;;;;;5085257;28;20024;-83
2022/01/17 04:11:06;;;;;;;10.68;3.97;;;;;;;;;;5088506;28;20031;-84
2022/01/17 04:13:33;;;;;;;8.38;3.10;;;;;;;;;;5099627;28;20022;-83
2022/01/17 04:15:58;;;;;;;8.65;2.83;;;;;;;;;;5081776;28;20031;-84
2022/01/17 04:18:24;;;;;;;10.75;2.95;;;;;;;;;;5081639;28;20032;-83
2022/01/17 04:20:50;;;;;;;7.22;2.40;;;;;;;;;;5084515;28;20049;-83
2022/01/17 04:23:15;;;;;;;6.10;2.28;;;;;;;;;;5102803;28;20031;-83
2022/01/17 04:25:43;;;;;;;9.52;2.60;;;;;;;;;;5081680;28;20040;-84
2022/01/17 04:28:10;;;;;;;8.88;3.17;;;;;;;;;;5100884;28;20027;-84
2022/01/17 04:30:36;;;;;;;9.00;2.60;;;;;;;;;;5082773;28;20036;-84
2022/01/17 04:33:03;;;;;;;8.63;2.80;;;;;;;;;;5084580;28;20032;-84
2022/01/17 04:35:29;;;;;;;7.40;2.80;;;;;;;;;;5084301;28;20032;-83
2022/01/17 04:38:09;;;;;;;8.32;2.97;;;;;;;;;;5106911;28;20499;-84
2022/01/17 04:40:38;;;;;;;7.80;2.92;;;;;;;;;;5086058;28;20019;-84
2022/01/17 04:43:06;;;;;;;7.03;3.00;;;;;;;;;;5084324;28;20092;-84
2022/01/17 04:45:32;;;;;;;8.25;3.17;;;;;;;;;;5105823;28;20095;-84
2022/01/17 04:47:58;;;;;;;7.25;3.22;;;;;;;;;;5099517;28;20020;-84
2022/01/17 04:50:26;;;;;;;8.02;3.55;;;;;;;;;;5089252;28;20024;-84
2022/01/17 04:52:56;;;;;;;9.57;3.08;;;;;;;;;;5080204;28;20024;-84
2022/01/17 04:55:23;;;;;;;12.80;4.05;;;;;;;;;;5092495;28;20117;-84
2022/01/17 04:57:48;;;;;;;12.23;4.68;;;;;;;;;;5081273;28;20020;-84
2022/01/17 05:00:17;;;;;;;9.15;4.20;;;;;;;;;;5082097;28;20378;-84
2022/01/17 05:02:43;;;;;;;11.38;4.40;;;;;;;;;;5101939;28;20020;-84
2022/01/17 05:05:10;;;;;;;11.25;4.43;;;;;;;;;;5085920;28;20496;-84
2022/01/17 05:07:36;;;;;;;9.45;4.13;;;;;;;;;;5087730;28;21597;-84
2022/01/17 05:10:04;;;;;;;11.35;4.10;;;;;;;;;;5100235;28;20029;-84
2022/01/17 05:12:30;;;;;;;10.45;4.22;;;;;;;;;;5082061;28;20120;-84
2022/01/17 05:14:56;;;;;;;9.32;3.70;;;;;;;;;;5085139;28;20028;-84
2022/01/17 05:19:58;;;;;;;9.10;3.30;;;;;;;;;;5101088;28;20032;-83
2022/01/17 05:22:30;;;;;;;10.10;3.30;;;;;;;;;;5101043;28;20386;-83
2022/01/17 05:24:55;;;;;;;9.18;3.90;;;;;;;;;;5079131;28;20035;-84
2022/01/17 05:27:21;;;;;;;9.10;4.07;;;;;;;;;;5081191;28;20059;-84
2022/01/17 05:29:47;;;;;;;8.18;3.40;;;;;;;;;;5081993;28;20048;-84
2022/01/17 05:32:12;;;;;;;9.93;4.13;;;;;;;;;;5101344;28;20036;-84
2022/01/17 05:34:40;;;;;;;10.60;4.03;;;;;;;;;;5080141;28;20355;-84
2022/01/17 05:37:06;;;;;;;10.88;4.13;;;;;;;;;;5087436;28;20050;-84
2022/01/17 05:39:32;;;;;;;9.70;4.20;;;;;;;;;;5087804;28;20020;-83
2022/01/17 05:41:58;;;;;;;8.23;3.70;;;;;;;;;;5087078;28;20035;-84
2022/01/17 05:44:23;;;;;;;8.23;3.55;;;;;;;;;;5084501;28;20098;-84
2022/01/17 05:46:48;;;;;;;10.65;4.20;;;;;;;;;;5088324;28;20058;-84
2022/01/17 05:49:14;;;;;;;11.90;3.53;;;;;;;;;;5089026;27;20032;-84
2022/01/17 05:51:39;;;;;;;10.52;3.80;;;;;;;;;;5089831;28;20027;-83
2022/01/17 05:54:04;;;;;;;11.93;4.00;;;;;;;;;;5088559;28;20028;-84
2022/01/17 05:56:30;;;;;;;10.55;3.88;;;;;;;;;;5083473;28;20046;-84
2022/01/17 05:58:55;;;;;;;10.73;4.50;;;;;;;;;;5075593;28;20073;-84
2022/01/17 06:01:21;;;;;;;10.75;4.50;;;;;;;;;;5079717;28;20024;-84
2022/01/17 06:03:46;;;;;;;11.82;4.65;;;;;;;;;;5080947;28;20035;-84
2022/01/17 06:06:12;;;;;;;11.05;5.15;;;;;;;;;;5101155;28;20024;-84
2022/01/17 06:08:38;;;;;;;15.48;5.53;;;;;;;;;;5089693;28;20031;-84
2022/01/17 06:11:03;;;;;;;16.38;4.97;;;;;;;;;;5079755;28;20027;-84
2022/01/17 06:13:29;;;;;;;11.68;5.13;;;;;;;;;;5100291;28;20032;-84
2022/01/17 06:15:54;;;;;;;15.13;5.57;;;;;;;;;;5085040;28;20027;-84
2022/01/17 06:18:20;;;;;;;17.65;6.70;;;;;;;;;;5086829;28;20501;-83
2022/01/17 06:20:45;;;;;;;19.85;6.47;;;;;;;;;;5086578;28;20031;-84
2022/01/17 06:23:10;;;;;;;14.60;6.15;;;;;;;;;;5085641;28;20526;-84
2022/01/17 06:25:36;;;;;;;12.10;5.53;;;;;;;;;;5102280;27;20023;-83
2022/01/17 06:28:01;;;;;;;14.57;6.85;;;;;;;;;;5107910;27;20498;-84
2022/01/17 06:30:27;;;;;;;13.60;7.07;;;;;;;;;;5084348;28;20048;-84
2022/01/17 06:32:52;;;;;;;15.52;7.00;;;;;;;;;;5109775;28;20087;-84
2022/01/17 06:35:19;;;;;;;14.80;7.63;;;;;;;;;;5087605;28;20027;-83
2022/01/17 06:37:45;;;;;;;16.60;7.78;;;;;;;;;;5090409;28;20114;-83
2022/01/17 06:40:12;;;;;;;15.40;7.65;;;;;;;;;;5080763;28;20035;-83
2022/01/17 06:42:38;;;;;;;17.23;7.80;;;;;;;;;;5089022;28;20020;-82
2022/01/17 06:45:05;;;;;;;15.55;8.25;;;;;;;;;;5087261;28;20023;-83
2022/01/17 06:47:31;;;;;;;18.83;8.10;;;;;;;;;;5086057;28;20394;-83
2022/01/17 06:49:57;;;;;;;21.23;9.07;;;;;;;;;;5084606;28;20042;-83
2022/01/17 06:52:23;;;;;;;20.15;9.18;;;;;;;;;;5080423;28;20382;-83
2022/01/17 06:54:49;;;;;;;23.83;10.00;;;;;;;;;;5099589;27;20477;-82
2022/01/17 06:57:14;;;;;;;22.38;9.95;;;;;;;;;;5082861;28;20039;-82
2022/01/17 06:59:40;;;;;;;20.85;10.25;;;;;;;;;;5080493;28;20035;-83
2022/01/17 07:02:05;;;;;;;18.40;10.63;;;;;;;;;;5084482;28;20028;-83
2022/01/17 07:04:30;;;;;;;21.98;11.30;;;;;;;;;;5102070;28;20047;-82
2022/01/17 07:06:56;;;;;;;26.45;11.90;;;;;;;;;;5106755;28;20525;-82
2022/01/17 07:09:21;;;;;;;22.10;12.00;;;;;;;;;;5081926;28;20110;-82
2022/01/17 07:11:47;;;;;;;24.48;11.95;;;;;;;;;;5083403;28;20024;-83
2022/01/17 07:14:13;;;;;;;22.88;11.23;;;;;;;;;;5086627;28;20027;-82
2022/01/17 07:16:39;;;;;;;25.83;12.43;;;;;;;;;;5086397;28;20024;-83
2022/01/17 07:19:06;;;;;;;26.90;13.57;;;;;;;;;;5080108;28;20024;-82
2022/01/17 07:21:32;;;;;;;23.83;11.88;;;;;;;;;;5083737;28;20547;-83
2022/01/17 07:23:58;;;;;;;25.77;12.40;;;;;;;;;;5103178;28;20465;-83
2022/01/17 07:26:24;;;;;;;28.25;13.40;;;;;;;;;;5084952;28;20027;-82
2022/01/17 07:28:49;;;;;;;24.13;11.82;;;;;;;;;;5108796;28;20142;-83
2022/01/17 07:31:18;;;;;;;27.10;12.88;;;;;;;;;;5084311;28;20020;-83
2022/01/17 07:33:44;;;;;;;22.50;13.23;;;;;;;;;;5083186;28;20050;-82
2022/01/17 07:36:09;;;;;;;21.27;12.02;;;;;;;;;;5089337;28;20025;-82
2022/01/17 07:38:35;;;;;;;23.77;13.10;;;;;;;;;;5084768;28;20031;-83
2022/01/17 07:41:02;;;;;;;25.17;13.25;;;;;;;;;;5096809;28;20023;-83
2022/01/17 07:43:27;;;;;;;26.25;13.30;;;;;;;;;;5105075;28;20496;-82
2022/01/17 07:46:37;;;;;;;26.23;13.40;;;;;;;;;;5085626;28;20106;-82
2022/01/17 07:51:22;;;;;;;24.60;13.07;;;;;;;;;;5098835;28;20432;-82
2022/01/17 07:53:48;;;;;;;24.00;12.55;;;;;;;;;;5103191;28;20027;-82
2022/01/17 07:56:13;;;;;;;25.58;12.85;;;;;;;;;;5086752;28;20035;-82
2022/01/17 07:58:40;;;;;;;23.15;12.57;;;;;;;;;;5085968;28;20027;-82
2022/01/17 08:01:05;;;;;;;23.08;12.40;;;;;;;;;;5079350;28;20053;-82
2022/01/17 08:03:31;;;;;;;21.83;12.73;;;;;;;;;;5080917;28;20036;-82
2022/01/17 08:05:56;;;;;;;24.75;12.88;;;;;;;;;;5108514;28;20053;-82
2022/01/17 08:08:22;;;;;;;22.73;12.80;;;;;;;;;;5092047;28;20020;-82
2022/01/17 08:10:47;;;;;;;26.15;12.25;;;;;;;;;;5087957;28;20080;-82
2022/01/17 08:13:12;;;;;;;25.05;13.45;;;;;;;;;;5089601;28;20031;-82
2022/01/17 08:15:38;;;;;;;24.73;12.48;;;;;;;;;;5085718;28;20015;-82
2022/01/17 08:18:04;;;;;;;24.65;12.65;;;;;;;;;;5109476;28;20074;-82
2022/01/17 08:20:30;;;;;;;28.88;12.45;;;;;;;;;;5088641;28;20032;-82
2022/01/17 08:22:59;;;;;;;24.38;13.63;;;;;;;;;;5089077;28;20028;-83
2022/01/17 08:25:24;;;;;;;24.02;12.77;;;;;;;;;;5087387;28;20119;-82
2022/01/17 08:27:50;;;;;;;25.38;12.55;;;;;;;;;;5083311;28;20505;-82
2022/01/17 08:30:15;;;;;;;28.45;12.77;;;;;;;;;;5102360;28;20532;-82
2022/01/17 08:32:41;;;;;;;23.60;12.55;;;;;;;;;;5081829;28;20509;-82
2022/01/17 08:35:07;;;;;;;31.50;13.07;;;;;;;;;;5084277;28;20028;-82
2022/01/17 08:37:32;;;;;;;24.10;12.27;;;;;;;;;;5087671;28;20028;-83
2022/01/17 08:39:59;;;;;;;24.80;12.65;;;;;;;;;;5106113;28;20072;-83
2022/01/17 08:42:27;;;;;;;24.65;12.45;;;;;;;;;;5085396;28;20028;-82
2022/01/17 08:44:55;;;;;;;25.80;11.68;;;;;;;;;;5085587;28;20031;-82
2022/01/17 08:47:20;;;;;;;24.98;12.27;;;;;;;;;;5081565;28;20103;-81
2022/01/17 08:49:48;;;;;;;21.63;11.88;;;;;;;;;;5081235;28;20162;-82
2022/01/17 08:52:15;;;;;;;24.58;11.90;;;;;;;;;;5082942;28;20035;-82
2022/01/17 08:54:41;;;;;;;25.95;11.60;;;;;;;;;;5084416;28;20023;-82
2022/01/17 08:57:06;;;;;;;21.20;11.85;;;;;;;;;;5110061;28;20102;-81
2022/01/17 08:59:32;;;;;;;28.08;12.18;;;;;;;;;;5084754;28;20176;-82
2022/01/17 09:02:01;;;;;;;23.60;11.90;;;;;;;;;;5085261;28;20024;-82
2022/01/17 09:04:26;;;;;;;26.77;11.90;;;;;;;;;;5081188;28;20122;-82
2022/01/17 09:06:52;;;;;;;23.20;11.45;;;;;;;;;;5101920;28;20098;-81
2022/01/17 09:09:17;;;;;;;26.15;11.27;;;;;;;;;;5082951;28;20023;-81
2022/01/17 09:11:43;;;;;;;22.45;11.45;;;;;;;;;;5082200;28;20095;-82
2022/01/17 09:14:09;;;;;;;20.63;10.98;;;;;;;;;;5103455;28;20043;-81
2022/01/17 09:16:35;;;;;;;26.23;11.27;;;;;;;;;;5092849;28;20019;-82
2022/01/17 09:19:01;;;;;;;24.02;10.95;;;;;;;;;;5088291;28;20065;-82
2022/01/17 09:21:27;;;;;;;25.52;10.55;;;;;;;;;;5089383;28;20706;-82
2022/01/17 09:23:57;;;;;;;26.10;9.77;;;;;;;;;;5090104;28;20093;-82
2022/01/17 09:26:25;;;;;;;26.92;9.65;;;;;;;;;;5088592;28;20110;-82
2022/01/17 09:28:51;;;;;;;21.60;9.00;;;;;;;;;;5106883;28;20059;-82
2022/01/17 09:31:16;;;;;;;23.80;9.75;;;;;;;;;;5100154;28;20039;-82
2022/01/17 09:33:42;;;;;;;25.73;10.10;;;;;;;;;;5092952;28;20020;-82
2022/01/17 09:36:07;;;;;;;24.63;9.13;;;;;;;;;;5088238;28;20034;-82
2022/01/17 09:38:32;;;;;;;24.63;9.32;;;;;;;;;;5091427;28;20030;-82
2022/01/17 09:40:59;;;;;;;23.98;9.00;;;;;;;;;;5083726;28;20016;-82
2022/01/17 09:43:25;;;;;;;20.75;8.00;;;;;;;;;;5090060;28;20385;-82
2022/01/17 09:45:51;;;;;;;23.33;8.93;;;;;;;;;;5113575;28;20039;-82
2022/01/17 09:48:20;;;;;;;18.42;8.43;;;;;;;;;;5082426;28;20072;-82
2022/01/17 09:51:01;;;;;;;19.40;8.07;;;;;;;;;;5088381;28;20358;-82
2022/01/17 09:53:28;;;;;;;28.95;8.57;;;;;;;;;;5089141;28;20019;-82
2022/01/17 09:55:58;;;;;;;23.60;8.65;;;;;;;;;;5105674;28;20032;-82
2022/01/17 09:58:24;;;;;;;22.98;8.52;;;;;;;;;;5102154;28;20028;-82
2022/01/17 10:00:50;;;;;;;19.38;8.40;;;;;;;;;;5087813;28;20027;-81
2022/01/17 10:03:21;;;;;;;20.75;7.95;;;;;;;;;;5089917;28;20028;-82
2022/01/17 10:05:46;;;;;;;25.75;8.52;;;;;;;;;;5110578;28;20485;-81
2022/01/17 10:08:16;;;;;;;22.73;7.82;;;;;;;;;;5088419;28;20038;-82
2022/01/17 10:10:51;;;;;;;21.40;7.43;;;;;;;;;;5099879;28;20094;-81
2022/01/17 10:13:32;;;;;;;14.25;7.13;;;;;;;;;;5101720;27;20560;-82
2022/01/17 10:16:02;;;;;;;21.27;7.30;;;;;;;;;;5097505;28;20082;-82
2022/01/17 10:18:40;;;;;;;23.80;7.65;;;;;;;;;;5104827;28;20051;-82
2022/01/17 10:21:18;;;;;;;19.92;7.03;;;;;;;;;;5079034;28;20027;-82
2022/01/17 10:24:19;;;;;;;18.45;6.72;;;;;;;;;;5098488;28;20023;-82
2022/01/17 10:29:57;;;;;;;18.70;6.53;;;;;;;;;;5101799;28;20059;-82
2022/01/17 10:35:30;;;;;;;17.30;6.90;;;;;;;;;;5101656;28;20103;-82
2022/01/17 10:38:14;;;;;;;24.65;6.95;;;;;;;;;;5084195;28;20382;-82
2022/01/17 10:40:49;;;;;;;16.40;6.78;;;;;;;;;;5099441;28;20070;-82
2022/01/17 10:43:35;;;;;;;19.63;5.90;;;;;;;;;;5081300;28;20016;-82
2022/01/17 10:46:07;;;;;;;15.50;5.78;;;;;;;;;;5080122;28;20528;-82
2022/01/17 10:48:44;;;;;;;16.45;6.28;;;;;;;;;;5077124;28;20020;-82
2022/01/17 10:51:11;;;;;;;16.88;5.72;;;;;;;;;;5076660;28;20105;-81
2022/01/17 10:53:39;;;;;;;21.80;6.18;;;;;;;;;;5091103;28;20035;-82
2022/01/17 10:56:08;;;;;;;22.48;6.47;;;;;;;;;;5088566;28;20035;-82
2022/01/17 10:58:37;;;;;;;23.52;5.80;;;;;;;;;;5088418;28;20035;-82
2022/01/17 11:01:08;;;;;;;29.73;6.32;;;;;;;;;;5085907;28;20019;-82
2022/01/17 11:03:35;;;;;;;17.92;5.63;;;;;;;;;;5087054;28;20019;-81
2022/01/17 11:06:03;;;;;;;22.90;5.63;;;;;;;;;;5086049;28;20596;-82
2022/01/17 11:08:30;;;;;;;21.98;5.80;;;;;;;;;;5086408;28;20031;-82
2022/01/17 11:10:58;;;;;;;16.60;5.47;;;;;;;;;;5090639;28;20024;-81
2022/01/17 11:13:31;;;;;;;25.60;5.82;;;;;;;;;;5089270;28;20062;-82
2022/01/17 11:16:00;;;;;;;19.95;5.50;;;;;;;;;;5087165;28;20065;-82
2022/01/17 11:18:30;;;;;;;23.95;5.55;;;;;;;;;;5108716;28;20066;-82
2022/01/17 11:20:59;;;;;;;18.58;5.25;;;;;;;;;;5104877;28;20047;-82
2022/01/17 11:23:26;;;;;;;18.85;5.78;;;;;;;;;;5106208;28;20028;-82
2022/01/17 11:25:55;;;;;;;21.23;5.40;;;;;;;;;;5090724;28;20031;-81
2022/01/17 11:28:33;;;;;;;20.88;5.45;;;;;;;;;;5085576;28;20110;-82
2022/01/17 11:31:02;;;;;;;18.88;4.85;;;;;;;;;;5087284;28;20084;-82
2022/01/17 11:33:28;;;;;;;20.17;4.90;;;;;;;;;;5106553;28;20056;-82
2022/01/17 11:35:54;;;;;;;18.88;5.10;;;;;;;;;;5084790;28;20030;-81
2022/01/17 11:38:27;;;;;;;19.40;5.22;;;;;;;;;;5085622;28;20028;-83
2022/01/17 11:40:53;;;;;;;19.75;5.32;;;;;;;;;;5082656;28;20060;-82
2022/01/17 11:43:27;;;;;;;24.10;5.13;;;;;;;;;;5089972;28;20032;-81
2022/01/17 11:45:53;;;;;;;16.88;4.57;;;;;;;;;;5100806;28;20031;-82
2022/01/17 11:48:29;;;;;;;25.67;5.45;;;;;;;;;;5093263;28;20110;-82
2022/01/17 11:50:58;;;;;;;19.35;4.85;;;;;;;;;;5098883;28;20848;-81
2022/01/17 11:53:27;;;;;;;21.58;5.30;;;;;;;;;;5106575;28;20043;-82
2022/01/17 11:55:52;;;;;;;25.13;4.95;;;;;;;;;;5106889;28;20027;-82
2022/01/17 11:58:19;;;;;;;21.42;5.03;;;;;;;;;;5084286;28;20124;-82
2022/01/17 12:00:45;;;;;;;20.88;4.90;;;;;;;;;;5085335;28;20031;-82
2022/01/17 12:03:21;;;;;;;22.17;4.90;;;;;;;;;;5085752;28;20023;-82
2022/01/17 12:05:47;;;;;;;20.33;5.32;;;;;;;;;;5078725;28;20041;-82
2022/01/17 12:08:21;;;;;;;16.83;5.07;;;;;;;;;;5087260;28;20470;-82
2022/01/17 12:11:12;;;;;;;18.08;4.03;;;;;;;;;;5080642;28;20043;-82
2022/01/17 12:13:44;;;;;;;17.00;3.72;;;;;;;;;;5088029;28;20051;-82
2022/01/17 12:16:22;;;;;;;15.38;2.92;;;;;;;;;;5083032;28;20032;-82
2022/01/17 12:18:50;;;;;;;26.05;3.67;;;;;;;;;;5094685;28;20054;-82
2022/01/17 12:21:47;;;;;;;18.85;3.03;;;;;;;;;;5100817;28;20413;-81
2022/01/17 12:24:48;;;;;;;18.55;3.10;;;;;;;;;;5088016;28;20118;-82
2022/01/17 12:27:15;;;;;;;18.77;2.90;;;;;;;;;;5027745;28;20095;-81
2022/01/17 12:29:44;;;;;;;18.30;3.25;;;;;;;;;;5071859;28;20540;-81
2022/01/17 12:32:40;;;;;;;15.45;2.55;;;;;;;;;;5082732;28;20069;-82
2022/01/17 12:35:11;;;;;;;14.32;2.47;;;;;;;;;;5103974;28;20031;-81
2022/01/17 12:37:53;;;;;;;22.67;3.08;;;;;;;;;;5093482;28;20389;-82
2022/01/17 12:40:25;;;;;;;18.08;2.47;;;;;;;;;;5088346;28;20509;-82
2022/01/17 12:43:02;;;;;;;20.20;3.20;;;;;;;;;;5089432;28;20020;-81
2022/01/17 12:45:40;;;;;;;23.95;3.45;;;;;;;;;;5086018;28;20024;-81
2022/01/17 12:48:08;;;;;;;21.27;3.83;;;;;;;;;;5089746;28;20019;-81
2022/01/17 12:50:36;;;;;;;21.75;2.72;;;;;;;;;;5105380;28;20099;-82
2022/01/17 12:53:03;;;;;;;15.15;2.15;;;;;;;;;;5106626;28;20035;-81
2022/01/17 12:55:49;;;;;;;20.83;2.47;;;;;;;;;;5085875;28;20400;-81
2022/01/17 12:58:21;;;;;;;16.08;2.40;;;;;;;;;;5084935;28;20031;-82
2022/01/17 13:01:00;;;;;;;14.88;2.13;;;;;;;;;;5106483;28;20039;-82
2022/01/17 13:03:29;;;;;;;20.83;3.03;;;;;;;;;;5107968;28;20016;-82
2022/01/17 13:05:55;;;;;;;16.00;2.35;;;;;;;;;;5102162;28;20397;-82
2022/01/17 13:08:22;;;;;;;15.68;2.95;;;;;;;;;;5090521;28;20028;-83
2022/01/17 13:10:49;;;;;;;19.50;3.22;;;;;;;;;;5089526;28;20051;-82
2022/01/17 13:13:17;;;;;;;16.13;1.90;;;;;;;;;;5089631;28;20119;-82
2022/01/17 13:16:04;;;;;;;17.27;2.55;;;;;;;;;;5085727;28;20020;-82
2022/01/17 13:18:32;;;;;;;16.42;2.33;;;;;;;;;;5088831;28;20027;-82
2022/01/17 13:20:59;;;;;;;22.17;3.05;;;;;;;;;;5102579;28;20478;-83
2022/01/17 13:23:52;;;;;;;15.25;2.47;;;;;;;;;;5089866;28;20016;-82
2022/01/17 13:26:29;;;;;;;17.20;2.83;;;;;;;;;;5091115;28;20572;-82
2022/01/17 13:28:56;;;;;;;14.07;1.88;;;;;;;;;;5088929;28;20296;-82
2022/01/17 13:31:26;;;;;;;22.17;2.85;;;;;;;;;;5090082;28;20051;-82
2022/01/17 13:33:53;;;;;;;18.70;2.38;;;;;;;;;;5108004;28;20565;-81
2022/01/17 13:36:29;;;;;;;14.73;3.00;;;;;;;;;;5088931;28;20030;-82
2022/01/17 13:39:05;;;;;;;15.18;2.13;;;;;;;;;;5085548;28;20035;-82
2022/01/17 13:41:31;;;;;;;17.58;2.38;;;;;;;;;;5083295;28;20032;-82
2022/01/17 13:43:57;;;;;;;16.73;2.10;;;;;;;;;;5089119;28;20031;-82
2022/01/17 13:46:22;;;;;;;20.75;3.13;;;;;;;;;;5085281;28;20506;-83
2022/01/17 13:48:48;;;;;;;21.05;2.47;;;;;;;;;;5112950;27;20031;-82
2022/01/17 13:51:16;;;;;;;18.70;2.40;;;;;;;;;;5095882;28;20027;-83
2022/01/17 13:53:41;;;;;;;15.35;2.35;;;;;;;;;;5113115;28;20027;-81
2022/01/17 13:56:08;;;;;;;23.52;2.75;;;;;;;;;;5087713;28;20027;-82
2022/01/17 13:58:41;;;;;;;18.15;2.40;;;;;;;;;;5112467;28;20020;-81
2022/01/17 14:01:12;;;;;;;17.17;2.38;;;;;;;;;;5105546;28;20027;-82
2022/01/17 14:03:40;;;;;;;16.50;2.60;;;;;;;;;;5085016;28;20023;-83
2022/01/17 14:06:07;;;;;;;21.60;3.20;;;;;;;;;;5106667;28;20020;-83
2022/01/17 14:08:48;;;;;;;15.32;2.42;;;;;;;;;;5089491;28;20081;-82
2022/01/17 14:11:15;;;;;;;27.55;3.30;;;;;;;;;;5093364;28;20032;-82
2022/01/17 14:13:59;;;;;;;27.48;2.67;;;;;;;;;;5084772;28;20425;-81
2022/01/17 14:16:30;;;;;;;17.15;1.98;;;;;;;;;;5085183;28;20032;-82
2022/01/17 14:19:06;;;;;;;22.77;2.40;;;;;;;;;;5087936;28;20029;-82
2022/01/17 14:21:43;;;;;;;17.85;2.58;;;;;;;;;;5090624;28;20485;-82
2022/01/17 14:24:26;;;;;;;22.45;2.75;;;;;;;;;;5104008;28;20027;-82
2022/01/17 14:26:56;;;;;;;21.52;2.50;;;;;;;;;;5093799;28;20024;-82
2022/01/17 14:29:25;;;;;;;25.27;2.60;;;;;;;;;;5110260;28;20078;-82
2022/01/17 14:31:52;;;;;;;19.10;2.33;;;;;;;;;;5085626;28;20027;-83
2022/01/17 14:34:21;;;;;;;19.27;3.08;;;;;;;;;;5090214;28;20103;-82
2022/01/17 14:37:08;;;;;;;23.23;3.05;;;;;;;;;;5105568;27;20054;-82
2022/01/17 14:39:40;;;;;;;23.10;2.53;;;;;;;;;;5085149;28;20024;-82
2022/01/17 14:42:32;;;;;;;27.63;2.67;;;;;;;;;;5077598;28;20038;-82
2022/01/17 14:45:00;;;;;;;16.38;2.45;;;;;;;;;;5077478;28;20039;-82
2022/01/17 14:47:40;;;;;;;15.57;2.38;;;;;;;;;;5079283;28;20019;-82
2022/01/17 14:50:07;;;;;;;19.00;2.63;;;;;;;;;;5077671;28;20139;-82
2022/01/17 14:52:35;;;;;;;19.92;2.50;;;;;;;;;;5078907;28;20073;-82
2022/01/17 15:00:36;;;;;;;18.48;2.70;;;;;;;;;;5091871;28;20307;-82
2022/01/17 15:03:09;;;;;;;16.70;2.55;;;;;;;;;;5095624;28;20560;-82
2022/01/17 15:05:35;;;;;;;21.02;2.58;;;;;;;;;;5080035;28;20035;-82
2022/01/17 15:08:01;;;;;;;20.67;2.70;;;;;;;;;;5078508;28;20111;-83
2022/01/17 15:10:31;;;;;;;17.38;2.72;;;;;;;;;;5077279;28;20035;-82